sensor_id;sensor_type;location;lat;lon;timestamp;temperature;humidity
21033;DHT22;10675;47.976;7.824;2023-07-31T00:01:39;17.30;99.90
21033;DHT22;10675;47.976;7.824;2023-07-31T00:04:05;17.30;99.90
21033;DHT22;10675;47.976;7.824;2023-07-31T00:06:30;17.20;99.90
21033;DHT22;10675;47.976;7.824;2023-07-31T00:08:56;17.20;99.90
21033;DHT22;10675;47.976;7.824;2023-07-31T00:11:21;17.10;99.90
21033;DHT22;10675;47.976;7.824;2023-07-31T00:13:47;17.10;99.90
21033;DHT22;10675;47.976;7.824;2023-07-31T00:16:13;17.00;99.90
21033;DHT22;10675;47.976;7.824;2023-07-31T00:18:38;17.00;99.90
21033;DHT22;10675;47.976;7.824;2023-07-31T00:21:04;17.00;99.90
21033;DHT22;10675;47.976;7.824;2023-07-31T00:23:29;17.00;99.90
21033;DHT22;10675;47.976;7.824;2023-07-31T00:25:55;17.00;99.90
21033;DHT22;10675;47.976;7.824;2023-07-31T00:28:20;16.90;99.90
21033;DHT22;10675;47.976;7.824;2023-07-31T00:30:46;16.90;99.90
21033;DHT22;10675;47.976;7.824;2023-07-31T00:33:11;16.90;99.90
21033;DHT22;10675;47.976;7.824;2023-07-31T00:35:37;16.80;99.90
21033;DHT22;10675;47.976;7.824;2023-07-31T00:38:03;16.80;99.90
21033;DHT22;10675;47.976;7.824;2023-07-31T00:40:28;16.80;99.90
21033;DHT22;10675;47.976;7.824;2023-07-31T00:42:54;16.70;99.90
21033;DHT22;10675;47.976;7.824;2023-07-31T00:45:19;16.70;99.90
21033;DHT22;10675;47.976;7.824;2023-07-31T00:47:45;16.70;99.90
21033;DHT22;10675;47.976;7.824;2023-07-31T00:50:11;16.70;99.90
21033;DHT22;10675;47.976;7.824;2023-07-31T00:52:36;16.70;99.90
21033;DHT22;10675;47.976;7.824;2023-07-31T00:55:03;16.30;99.90
21033;DHT22;10675;47.976;7.824;2023-07-31T00:57:30;16.60;99.90
21033;DHT22;10675;47.976;7.824;2023-07-31T00:59:57;16.60;99.90
21033;DHT22;10675;47.976;7.824;2023-07-31T01:02:22;16.50;99.90
21033;DHT22;10675;47.976;7.824;2023-07-31T01:04:48;16.40;99.90
21033;DHT22;10675;47.976;7.824;2023-07-31T01:07:22;16.40;99.90
21033;DHT22;10675;47.976;7.824;2023-07-31T01:10:41;16.40;99.90
21033;DHT22;10675;47.976;7.824;2023-07-31T01:12:38;16.30;99.90
21033;DHT22;10675;47.976;7.824;2023-07-31T01:15:08;16.30;99.90
21033;DHT22;10675;47.976;7.824;2023-07-31T01:17:38;16.30;99.90
21033;DHT22;10675;47.976;7.824;2023-07-31T01:20:06;16.30;99.90
21033;DHT22;10675;47.976;7.824;2023-07-31T01:22:48;16.30;99.90
21033;DHT22;10675;47.976;7.824;2023-07-31T01:25:43;16.30;99.90
21033;DHT22;10675;47.976;7.824;2023-07-31T01:28:20;16.30;99.90
21033;DHT22;10675;47.976;7.824;2023-07-31T01:30:48;16.30;99.90
21033;DHT22;10675;47.976;7.824;2023-07-31T01:33:16;16.20;99.90
21033;DHT22;10675;47.976;7.824;2023-07-31T01:35:44;16.20;99.90
21033;DHT22;10675;47.976;7.824;2023-07-31T01:38:10;16.30;99.90
21033;DHT22;10675;47.976;7.824;2023-07-31T01:40:35;16.20;99.90
21033;DHT22;10675;47.976;7.824;2023-07-31T01:43:01;16.20;99.90
21033;DHT22;10675;47.976;7.824;2023-07-31T01:45:27;16.20;99.90
21033;DHT22;10675;47.976;7.824;2023-07-31T01:47:52;16.20;99.90
21033;DHT22;10675;47.976;7.824;2023-07-31T01:50:18;16.20;99.90
21033;DHT22;10675;47.976;7.824;2023-07-31T01:52:43;16.20;99.90
21033;DHT22;10675;47.976;7.824;2023-07-31T01:55:09;16.20;99.90
21033;DHT22;10675;47.976;7.824;2023-07-31T01:57:36;16.20;99.90
21033;DHT22;10675;47.976;7.824;2023-07-31T02:00:01;16.20;99.90
21033;DHT22;10675;47.976;7.824;2023-07-31T02:02:27;16.10;99.90
21033;DHT22;10675;47.976;7.824;2023-07-31T02:04:52;16.10;99.90
21033;DHT22;10675;47.976;7.824;2023-07-31T02:07:18;16.10;99.90
21033;DHT22;10675;47.976;7.824;2023-07-31T02:09:43;16.20;99.90
21033;DHT22;10675;47.976;7.824;2023-07-31T02:12:09;16.10;99.90
21033;DHT22;10675;47.976;7.824;2023-07-31T02:14:35;16.10;99.90
21033;DHT22;10675;47.976;7.824;2023-07-31T02:17:00;16.10;99.90
21033;DHT22;10675;47.976;7.824;2023-07-31T02:19:26;16.10;99.90
21033;DHT22;10675;47.976;7.824;2023-07-31T02:21:51;16.00;99.90
21033;DHT22;10675;47.976;7.824;2023-07-31T02:24:17;16.00;99.90
21033;DHT22;10675;47.976;7.824;2023-07-31T02:26:42;16.00;99.90
21033;DHT22;10675;47.976;7.824;2023-07-31T02:29:08;16.00;99.90
21033;DHT22;10675;47.976;7.824;2023-07-31T02:31:34;15.90;99.90
21033;DHT22;10675;47.976;7.824;2023-07-31T02:33:59;15.90;99.90
21033;DHT22;10675;47.976;7.824;2023-07-31T02:36:25;16.00;99.90
21033;DHT22;10675;47.976;7.824;2023-07-31T02:38:51;15.90;99.90
21033;DHT22;10675;47.976;7.824;2023-07-31T02:41:16;15.90;99.90
21033;DHT22;10675;47.976;7.824;2023-07-31T02:43:42;15.90;99.90
21033;DHT22;10675;47.976;7.824;2023-07-31T02:46:07;15.80;99.90
21033;DHT22;10675;47.976;7.824;2023-07-31T02:48:33;15.80;99.90
21033;DHT22;10675;47.976;7.824;2023-07-31T02:50:58;15.80;99.90
21033;DHT22;10675;47.976;7.824;2023-07-31T02:53:24;15.80;99.90
21033;DHT22;10675;47.976;7.824;2023-07-31T02:55:49;15.80;99.90
21033;DHT22;10675;47.976;7.824;2023-07-31T02:58:15;15.80;99.90
21033;DHT22;10675;47.976;7.824;2023-07-31T03:00:44;15.80;99.90
21033;DHT22;10675;47.976;7.824;2023-07-31T03:03:10;15.80;99.90
21033;DHT22;10675;47.976;7.824;2023-07-31T03:05:35;15.90;99.90
21033;DHT22;10675;47.976;7.824;2023-07-31T03:08:01;15.90;99.90
21033;DHT22;10675;47.976;7.824;2023-07-31T03:10:27;15.90;99.90
21033;DHT22;10675;47.976;7.824;2023-07-31T03:12:52;16.00;99.90
21033;DHT22;10675;47.976;7.824;2023-07-31T03:15:18;15.90;99.90
21033;DHT22;10675;47.976;7.824;2023-07-31T03:17:43;15.90;99.90
21033;DHT22;10675;47.976;7.824;2023-07-31T03:20:09;15.80;99.90
21033;DHT22;10675;47.976;7.824;2023-07-31T03:22:35;15.70;99.90
21033;DHT22;10675;47.976;7.824;2023-07-31T03:25:02;15.60;99.90
21033;DHT22;10675;47.976;7.824;2023-07-31T03:27:27;15.60;99.90
21033;DHT22;10675;47.976;7.824;2023-07-31T03:29:53;15.50;99.90
21033;DHT22;10675;47.976;7.824;2023-07-31T03:32:18;15.60;99.90
21033;DHT22;10675;47.976;7.824;2023-07-31T03:34:44;15.70;99.90
21033;DHT22;10675;47.976;7.824;2023-07-31T03:37:09;15.80;99.90
21033;DHT22;10675;47.976;7.824;2023-07-31T03:39:35;15.90;99.90
21033;DHT22;10675;47.976;7.824;2023-07-31T03:42:01;15.90;99.90
21033;DHT22;10675;47.976;7.824;2023-07-31T03:44:26;16.00;99.90
21033;DHT22;10675;47.976;7.824;2023-07-31T03:46:52;15.90;99.90
21033;DHT22;10675;47.976;7.824;2023-07-31T03:49:17;15.90;99.90
21033;DHT22;10675;47.976;7.824;2023-07-31T03:51:43;15.90;99.90
21033;DHT22;10675;47.976;7.824;2023-07-31T03:54:08;15.90;99.90
21033;DHT22;10675;47.976;7.824;2023-07-31T03:56:34;15.80;99.90
21033;DHT22;10675;47.976;7.824;2023-07-31T03:58:59;15.80;99.90
21033;DHT22;10675;47.976;7.824;2023-07-31T04:01:26;15.80;99.90
21033;DHT22;10675;47.976;7.824;2023-07-31T04:03:51;15.80;99.90
21033;DHT22;10675;47.976;7.824;2023-07-31T04:06:17;15.80;99.90
21033;DHT22;10675;47.976;7.824;2023-07-31T04:08:45;15.80;99.90
21033;DHT22;10675;47.976;7.824;2023-07-31T04:11:11;15.80;99.90
21033;DHT22;10675;47.976;7.824;2023-07-31T04:13:38;15.80;99.90
21033;DHT22;10675;47.976;7.824;2023-07-31T04:16:03;15.80;99.90
21033;DHT22;10675;47.976;7.824;2023-07-31T04:18:29;15.80;99.90
21033;DHT22;10675;47.976;7.824;2023-07-31T04:20:56;15.80;99.90
21033;DHT22;10675;47.976;7.824;2023-07-31T04:23:24;15.70;99.90
21033;DHT22;10675;47.976;7.824;2023-07-31T04:25:49;15.60;99.90
21033;DHT22;10675;47.976;7.824;2023-07-31T04:28:15;15.70;99.90
21033;DHT22;10675;47.976;7.824;2023-07-31T04:30:40;15.70;99.90
21033;DHT22;10675;47.976;7.824;2023-07-31T04:33:06;15.80;99.90
21033;DHT22;10675;47.976;7.824;2023-07-31T04:35:31;15.90;99.90
21033;DHT22;10675;47.976;7.824;2023-07-31T04:37:57;16.00;99.90
21033;DHT22;10675;47.976;7.824;2023-07-31T04:40:22;15.90;99.90
21033;DHT22;10675;47.976;7.824;2023-07-31T04:42:48;16.30;99.90
21033;DHT22;10675;47.976;7.824;2023-07-31T04:45:13;16.50;99.90
21033;DHT22;10675;47.976;7.824;2023-07-31T04:47:39;16.80;99.90
21033;DHT22;10675;47.976;7.824;2023-07-31T04:50:05;16.90;99.90
21033;DHT22;10675;47.976;7.824;2023-07-31T04:52:31;16.80;99.90
21033;DHT22;10675;47.976;7.824;2023-07-31T04:54:56;16.80;99.90
21033;DHT22;10675;47.976;7.824;2023-07-31T04:57:22;16.80;99.90
21033;DHT22;10675;47.976;7.824;2023-07-31T04:59:47;16.80;99.90
21033;DHT22;10675;47.976;7.824;2023-07-31T05:02:13;16.80;99.90
21033;DHT22;10675;47.976;7.824;2023-07-31T05:04:39;16.90;99.90
21033;DHT22;10675;47.976;7.824;2023-07-31T05:07:04;16.90;99.90
21033;DHT22;10675;47.976;7.824;2023-07-31T05:09:30;17.00;99.90
21033;DHT22;10675;47.976;7.824;2023-07-31T05:11:56;17.20;99.90
21033;DHT22;10675;47.976;7.824;2023-07-31T05:14:21;17.30;99.90
21033;DHT22;10675;47.976;7.824;2023-07-31T05:16:47;17.40;99.90
21033;DHT22;10675;47.976;7.824;2023-07-31T05:19:12;17.40;99.90
21033;DHT22;10675;47.976;7.824;2023-07-31T05:21:38;17.40;99.90
21033;DHT22;10675;47.976;7.824;2023-07-31T05:24:04;17.40;99.90
21033;DHT22;10675;47.976;7.824;2023-07-31T05:26:29;17.40;99.90
21033;DHT22;10675;47.976;7.824;2023-07-31T05:28:55;17.40;99.90
21033;DHT22;10675;47.976;7.824;2023-07-31T05:31:20;17.40;99.90
21033;DHT22;10675;47.976;7.824;2023-07-31T05:33:47;17.50;99.90
21033;DHT22;10675;47.976;7.824;2023-07-31T05:36:15;17.50;99.90
21033;DHT22;10675;47.976;7.824;2023-07-31T05:38:41;17.40;99.90
21033;DHT22;10675;47.976;7.824;2023-07-31T05:41:07;17.50;99.90
21033;DHT22;10675;47.976;7.824;2023-07-31T05:43:33;17.50;99.90
21033;DHT22;10675;47.976;7.824;2023-07-31T05:45:59;17.50;99.90
21033;DHT22;10675;47.976;7.824;2023-07-31T05:48:24;17.50;99.90
21033;DHT22;10675;47.976;7.824;2023-07-31T05:50:50;17.50;99.90
21033;DHT22;10675;47.976;7.824;2023-07-31T05:53:15;17.60;99.90
21033;DHT22;10675;47.976;7.824;2023-07-31T05:55:41;17.60;99.80
21033;DHT22;10675;47.976;7.824;2023-07-31T05:58:06;17.60;99.80
21033;DHT22;10675;47.976;7.824;2023-07-31T06:00:32;17.70;99.90
21033;DHT22;10675;47.976;7.824;2023-07-31T06:02:57;17.60;99.90
21033;DHT22;10675;47.976;7.824;2023-07-31T06:05:23;17.70;99.80
21033;DHT22;10675;47.976;7.824;2023-07-31T06:07:49;17.70;99.90
21033;DHT22;10675;47.976;7.824;2023-07-31T06:10:14;17.70;99.90
21033;DHT22;10675;47.976;7.824;2023-07-31T06:12:40;17.80;99.90
21033;DHT22;10675;47.976;7.824;2023-07-31T06:15:05;17.90;99.80
21033;DHT22;10675;47.976;7.824;2023-07-31T06:17:31;18.00;99.70
21033;DHT22;10675;47.976;7.824;2023-07-31T06:19:57;18.10;99.40
21033;DHT22;10675;47.976;7.824;2023-07-31T06:22:22;18.10;98.80
21033;DHT22;10675;47.976;7.824;2023-07-31T06:24:48;18.10;99.20
21033;DHT22;10675;47.976;7.824;2023-07-31T06:27:13;18.10;98.90
21033;DHT22;10675;47.976;7.824;2023-07-31T06:29:39;18.10;99.00
21033;DHT22;10675;47.976;7.824;2023-07-31T06:32:05;18.20;98.80
21033;DHT22;10675;47.976;7.824;2023-07-31T06:34:30;18.10;98.70
21033;DHT22;10675;47.976;7.824;2023-07-31T06:36:56;18.10;98.80
21033;DHT22;10675;47.976;7.824;2023-07-31T06:39:22;18.20;98.40
21033;DHT22;10675;47.976;7.824;2023-07-31T06:41:48;18.40;98.20
21033;DHT22;10675;47.976;7.824;2023-07-31T06:44:13;18.40;98.10
21033;DHT22;10675;47.976;7.824;2023-07-31T06:46:39;18.40;97.80
21033;DHT22;10675;47.976;7.824;2023-07-31T06:49:04;18.40;97.90
21033;DHT22;10675;47.976;7.824;2023-07-31T06:51:30;18.40;97.80
21033;DHT22;10675;47.976;7.824;2023-07-31T06:53:59;18.50;97.70
21033;DHT22;10675;47.976;7.824;2023-07-31T06:56:24;18.40;97.40
21033;DHT22;10675;47.976;7.824;2023-07-31T06:58:51;18.60;96.90
21033;DHT22;10675;47.976;7.824;2023-07-31T07:01:16;18.60;96.40
21033;DHT22;10675;47.976;7.824;2023-07-31T07:03:42;18.60;96.50
21033;DHT22;10675;47.976;7.824;2023-07-31T07:06:07;18.70;96.50
21033;DHT22;10675;47.976;7.824;2023-07-31T07:08:33;18.80;96.60
21033;DHT22;10675;47.976;7.824;2023-07-31T07:10:59;18.70;95.80
21033;DHT22;10675;47.976;7.824;2023-07-31T07:13:24;18.80;95.80
21033;DHT22;10675;47.976;7.824;2023-07-31T07:15:50;18.80;95.60
21033;DHT22;10675;47.976;7.824;2023-07-31T07:18:17;18.80;95.60
21033;DHT22;10675;47.976;7.824;2023-07-31T07:20:52;18.80;95.10
21033;DHT22;10675;47.976;7.824;2023-07-31T07:23:19;19.10;95.60
21033;DHT22;10675;47.976;7.824;2023-07-31T07:25:46;19.20;95.10
21033;DHT22;10675;47.976;7.824;2023-07-31T07:28:12;19.20;94.70
21033;DHT22;10675;47.976;7.824;2023-07-31T07:30:38;19.20;95.30
21033;DHT22;10675;47.976;7.824;2023-07-31T07:33:03;19.40;95.60
21033;DHT22;10675;47.976;7.824;2023-07-31T07:35:29;19.50;94.70
21033;DHT22;10675;47.976;7.824;2023-07-31T07:37:54;19.60;94.80
21033;DHT22;10675;47.976;7.824;2023-07-31T07:40:21;19.70;94.70
21033;DHT22;10675;47.976;7.824;2023-07-31T07:42:46;19.90;94.80
21033;DHT22;10675;47.976;7.824;2023-07-31T07:45:12;19.60;94.00
21033;DHT22;10675;47.976;7.824;2023-07-31T07:47:40;20.20;93.10
21033;DHT22;10675;47.976;7.824;2023-07-31T07:50:06;20.40;93.10
21033;DHT22;10675;47.976;7.824;2023-07-31T07:52:32;20.50;91.80
21033;DHT22;10675;47.976;7.824;2023-07-31T07:54:57;20.70;92.40
21033;DHT22;10675;47.976;7.824;2023-07-31T07:57:23;21.00;92.00
21033;DHT22;10675;47.976;7.824;2023-07-31T07:59:48;20.80;91.40
21033;DHT22;10675;47.976;7.824;2023-07-31T08:02:14;20.60;90.60
21033;DHT22;10675;47.976;7.824;2023-07-31T08:04:39;20.40;91.00
21033;DHT22;10675;47.976;7.824;2023-07-31T08:07:05;20.50;91.80
21033;DHT22;10675;47.976;7.824;2023-07-31T08:09:31;20.70;91.80
21033;DHT22;10675;47.976;7.824;2023-07-31T08:11:56;20.80;91.50
21033;DHT22;10675;47.976;7.824;2023-07-31T08:14:27;20.80;91.90
21033;DHT22;10675;47.976;7.824;2023-07-31T08:16:52;20.60;91.90
21033;DHT22;10675;47.976;7.824;2023-07-31T08:19:18;20.60;91.80
21033;DHT22;10675;47.976;7.824;2023-07-31T08:21:43;20.30;90.60
21033;DHT22;10675;47.976;7.824;2023-07-31T08:24:09;20.30;91.60
21033;DHT22;10675;47.976;7.824;2023-07-31T08:26:34;20.50;91.00
21033;DHT22;10675;47.976;7.824;2023-07-31T08:29:00;20.70;91.50
21033;DHT22;10675;47.976;7.824;2023-07-31T08:31:25;21.00;91.00
21033;DHT22;10675;47.976;7.824;2023-07-31T08:33:52;21.00;90.80
21033;DHT22;10675;47.976;7.824;2023-07-31T08:36:17;21.10;90.30
21033;DHT22;10675;47.976;7.824;2023-07-31T08:38:45;21.30;90.00
21033;DHT22;10675;47.976;7.824;2023-07-31T08:41:10;21.50;90.30
21033;DHT22;10675;47.976;7.824;2023-07-31T08:43:37;21.50;87.70
21033;DHT22;10675;47.976;7.824;2023-07-31T08:46:03;21.30;87.10
21033;DHT22;10675;47.976;7.824;2023-07-31T08:48:29;21.40;88.80
21033;DHT22;10675;47.976;7.824;2023-07-31T08:50:56;21.50;88.90
21033;DHT22;10675;47.976;7.824;2023-07-31T08:53:22;21.60;86.00
21033;DHT22;10675;47.976;7.824;2023-07-31T08:55:48;21.50;86.90
21033;DHT22;10675;47.976;7.824;2023-07-31T08:58:15;21.70;90.10
21033;DHT22;10675;47.976;7.824;2023-07-31T09:00:41;21.60;86.10
21033;DHT22;10675;47.976;7.824;2023-07-31T09:03:16;21.70;87.50
21033;DHT22;10675;47.976;7.824;2023-07-31T09:05:43;22.10;87.30
21033;DHT22;10675;47.976;7.824;2023-07-31T09:08:10;22.00;84.10
21033;DHT22;10675;47.976;7.824;2023-07-31T09:10:44;21.80;83.50
21033;DHT22;10675;47.976;7.824;2023-07-31T09:13:12;21.80;83.50
21033;DHT22;10675;47.976;7.824;2023-07-31T09:15:37;22.10;84.30
21033;DHT22;10675;47.976;7.824;2023-07-31T09:18:05;21.80;84.20
21033;DHT22;10675;47.976;7.824;2023-07-31T09:20:31;21.80;85.10
21033;DHT22;10675;47.976;7.824;2023-07-31T09:23:13;22.10;88.70
21033;DHT22;10675;47.976;7.824;2023-07-31T09:25:43;22.00;83.80
21033;DHT22;10675;47.976;7.824;2023-07-31T09:28:10;22.20;84.70
21033;DHT22;10675;47.976;7.824;2023-07-31T09:30:47;22.60;83.80
21033;DHT22;10675;47.976;7.824;2023-07-31T09:33:13;22.60;85.50
21033;DHT22;10675;47.976;7.824;2023-07-31T09:35:39;22.60;82.40
21033;DHT22;10675;47.976;7.824;2023-07-31T09:38:15;22.40;81.40
21033;DHT22;10675;47.976;7.824;2023-07-31T09:40:47;22.30;82.20
21033;DHT22;10675;47.976;7.824;2023-07-31T09:43:20;22.60;82.70
21033;DHT22;10675;47.976;7.824;2023-07-31T09:45:46;22.60;81.70
21033;DHT22;10675;47.976;7.824;2023-07-31T09:48:14;22.60;80.80
21033;DHT22;10675;47.976;7.824;2023-07-31T09:50:45;22.50;81.40
21033;DHT22;10675;47.976;7.824;2023-07-31T09:53:10;22.60;81.10
21033;DHT22;10675;47.976;7.824;2023-07-31T09:55:37;22.50;81.10
21033;DHT22;10675;47.976;7.824;2023-07-31T09:58:10;22.80;81.10
21033;DHT22;10675;47.976;7.824;2023-07-31T10:00:36;22.80;79.50
21033;DHT22;10675;47.976;7.824;2023-07-31T10:03:08;22.80;80.30
21033;DHT22;10675;47.976;7.824;2023-07-31T10:05:50;22.90;80.40
21033;DHT22;10675;47.976;7.824;2023-07-31T10:08:20;23.00;80.00
21033;DHT22;10675;47.976;7.824;2023-07-31T10:10:47;23.10;79.40
21033;DHT22;10675;47.976;7.824;2023-07-31T10:13:13;23.10;79.20
21033;DHT22;10675;47.976;7.824;2023-07-31T10:15:39;23.10;78.40
21033;DHT22;10675;47.976;7.824;2023-07-31T10:18:06;23.10;78.30
21033;DHT22;10675;47.976;7.824;2023-07-31T10:20:32;23.00;77.10
21033;DHT22;10675;47.976;7.824;2023-07-31T10:22:58;23.10;77.40
21033;DHT22;10675;47.976;7.824;2023-07-31T10:25:26;23.10;77.70
21033;DHT22;10675;47.976;7.824;2023-07-31T10:27:53;23.20;77.00
21033;DHT22;10675;47.976;7.824;2023-07-31T10:30:23;23.40;77.00
21033;DHT22;10675;47.976;7.824;2023-07-31T10:32:51;23.50;77.80
21033;DHT22;10675;47.976;7.824;2023-07-31T10:35:18;23.60;78.40
21033;DHT22;10675;47.976;7.824;2023-07-31T10:37:44;23.50;77.40
21033;DHT22;10675;47.976;7.824;2023-07-31T10:40:23;23.40;77.90
21033;DHT22;10675;47.976;7.824;2023-07-31T10:42:54;23.20;77.20
21033;DHT22;10675;47.976;7.824;2023-07-31T10:45:31;23.50;76.40
21033;DHT22;10675;47.976;7.824;2023-07-31T10:48:00;23.30;73.90
21033;DHT22;10675;47.976;7.824;2023-07-31T10:50:27;23.40;74.10
21033;DHT22;10675;47.976;7.824;2023-07-31T10:52:54;23.40;72.60
21033;DHT22;10675;47.976;7.824;2023-07-31T10:57:51;23.90;74.10
21033;DHT22;10675;47.976;7.824;2023-07-31T11:00:29;24.10;73.80
21033;DHT22;10675;47.976;7.824;2023-07-31T11:05:46;23.40;72.80
21033;DHT22;10675;47.976;7.824;2023-07-31T11:08:17;23.50;73.80
21033;DHT22;10675;47.976;7.824;2023-07-31T11:10:44;23.20;73.20
21033;DHT22;10675;47.976;7.824;2023-07-31T11:13:10;22.90;73.60
21033;DHT22;10675;47.976;7.824;2023-07-31T11:15:36;22.70;74.20
21033;DHT22;10675;47.976;7.824;2023-07-31T11:18:02;22.90;75.50
21033;DHT22;10675;47.976;7.824;2023-07-31T11:20:34;22.80;76.60
21033;DHT22;10675;47.976;7.824;2023-07-31T11:23:08;23.20;76.50
21033;DHT22;10675;47.976;7.824;2023-07-31T11:25:35;22.90;76.20
21033;DHT22;10675;47.976;7.824;2023-07-31T11:28:08;23.60;76.80
21033;DHT22;10675;47.976;7.824;2023-07-31T11:30:34;23.30;76.60
21033;DHT22;10675;47.976;7.824;2023-07-31T11:33:02;23.70;75.70
21033;DHT22;10675;47.976;7.824;2023-07-31T11:35:35;23.90;75.50
21033;DHT22;10675;47.976;7.824;2023-07-31T11:38:02;23.70;76.20
21033;DHT22;10675;47.976;7.824;2023-07-31T11:40:28;23.60;77.10
21033;DHT22;10675;47.976;7.824;2023-07-31T11:42:56;23.60;75.10
21033;DHT22;10675;47.976;7.824;2023-07-31T11:45:25;23.50;74.80
21033;DHT22;10675;47.976;7.824;2023-07-31T11:47:52;23.40;75.30
21033;DHT22;10675;47.976;7.824;2023-07-31T11:50:18;23.40;76.60
21033;DHT22;10675;47.976;7.824;2023-07-31T11:52:44;23.80;75.30
21033;DHT22;10675;47.976;7.824;2023-07-31T11:55:11;24.00;75.50
21033;DHT22;10675;47.976;7.824;2023-07-31T11:57:39;24.20;75.20
21033;DHT22;10675;47.976;7.824;2023-07-31T12:00:09;24.40;73.50
21033;DHT22;10675;47.976;7.824;2023-07-31T12:02:37;24.80;75.40
21033;DHT22;10675;47.976;7.824;2023-07-31T12:05:05;24.90;74.70
21033;DHT22;10675;47.976;7.824;2023-07-31T12:07:48;24.80;71.10
21033;DHT22;10675;47.976;7.824;2023-07-31T12:10:31;24.40;72.70
21033;DHT22;10675;47.976;7.824;2023-07-31T12:13:00;24.40;71.60
21033;DHT22;10675;47.976;7.824;2023-07-31T12:15:41;24.40;71.50
21033;DHT22;10675;47.976;7.824;2023-07-31T12:18:19;24.20;71.70
21033;DHT22;10675;47.976;7.824;2023-07-31T12:21:01;24.60;73.10
21033;DHT22;10675;47.976;7.824;2023-07-31T12:23:28;25.10;72.50
21033;DHT22;10675;47.976;7.824;2023-07-31T12:26:14;25.00;70.00
21033;DHT22;10675;47.976;7.824;2023-07-31T12:28:45;24.90;71.00
21033;DHT22;10675;47.976;7.824;2023-07-31T12:31:15;24.90;72.60
21033;DHT22;10675;47.976;7.824;2023-07-31T12:33:42;24.70;69.40
21033;DHT22;10675;47.976;7.824;2023-07-31T12:36:11;24.50;68.80
21033;DHT22;10675;47.976;7.824;2023-07-31T12:38:37;24.10;69.80
21033;DHT22;10675;47.976;7.824;2023-07-31T12:41:03;24.20;70.90
21033;DHT22;10675;47.976;7.824;2023-07-31T12:43:29;24.60;70.20
21033;DHT22;10675;47.976;7.824;2023-07-31T12:45:55;25.20;71.00
21033;DHT22;10675;47.976;7.824;2023-07-31T12:48:23;25.70;68.10
21033;DHT22;10675;47.976;7.824;2023-07-31T12:50:49;25.90;68.00
21033;DHT22;10675;47.976;7.824;2023-07-31T12:53:15;25.90;67.30
21033;DHT22;10675;47.976;7.824;2023-07-31T12:55:41;26.20;67.50
21033;DHT22;10675;47.976;7.824;2023-07-31T12:58:06;26.50;65.30
21033;DHT22;10675;47.976;7.824;2023-07-31T13:00:32;26.40;65.30
21033;DHT22;10675;47.976;7.824;2023-07-31T13:02:58;26.20;65.60
21033;DHT22;10675;47.976;7.824;2023-07-31T13:05:24;26.20;64.70
21033;DHT22;10675;47.976;7.824;2023-07-31T13:07:49;26.50;66.40
21033;DHT22;10675;47.976;7.824;2023-07-31T13:10:15;26.60;64.10
21033;DHT22;10675;47.976;7.824;2023-07-31T13:12:41;26.20;63.50
21033;DHT22;10675;47.976;7.824;2023-07-31T13:15:07;25.70;63.30
21033;DHT22;10675;47.976;7.824;2023-07-31T13:17:36;25.20;66.20
21033;DHT22;10675;47.976;7.824;2023-07-31T13:20:02;24.60;66.30
21033;DHT22;10675;47.976;7.824;2023-07-31T13:22:28;24.60;66.90
21033;DHT22;10675;47.976;7.824;2023-07-31T13:24:54;24.60;67.80
21033;DHT22;10675;47.976;7.824;2023-07-31T13:27:19;24.70;67.20
21033;DHT22;10675;47.976;7.824;2023-07-31T13:29:50;24.90;68.50
21033;DHT22;10675;47.976;7.824;2023-07-31T13:32:17;24.70;66.20
21033;DHT22;10675;47.976;7.824;2023-07-31T13:34:44;24.90;68.10
21033;DHT22;10675;47.976;7.824;2023-07-31T13:37:10;25.10;67.30
21033;DHT22;10675;47.976;7.824;2023-07-31T13:39:35;25.90;66.20
21033;DHT22;10675;47.976;7.824;2023-07-31T13:42:03;26.40;64.80
21033;DHT22;10675;47.976;7.824;2023-07-31T13:44:32;26.00;63.80
21033;DHT22;10675;47.976;7.824;2023-07-31T13:46:57;25.80;65.00
21033;DHT22;10675;47.976;7.824;2023-07-31T13:49:23;25.80;66.50
21033;DHT22;10675;47.976;7.824;2023-07-31T13:51:48;25.90;66.60
21033;DHT22;10675;47.976;7.824;2023-07-31T13:54:14;26.30;65.90
21033;DHT22;10675;47.976;7.824;2023-07-31T13:56:41;26.40;64.60
21033;DHT22;10675;47.976;7.824;2023-07-31T13:59:06;26.40;63.70
21033;DHT22;10675;47.976;7.824;2023-07-31T14:01:32;26.90;63.70
21033;DHT22;10675;47.976;7.824;2023-07-31T14:03:57;27.10;62.40
21033;DHT22;10675;47.976;7.824;2023-07-31T14:06:23;27.10;62.10
21033;DHT22;10675;47.976;7.824;2023-07-31T14:08:49;27.20;62.90
21033;DHT22;10675;47.976;7.824;2023-07-31T14:11:14;26.90;62.20
21033;DHT22;10675;47.976;7.824;2023-07-31T14:13:40;26.60;61.90
21033;DHT22;10675;47.976;7.824;2023-07-31T14:16:05;26.30;64.00
21033;DHT22;10675;47.976;7.824;2023-07-31T14:18:31;26.20;64.00
21033;DHT22;10675;47.976;7.824;2023-07-31T14:20:57;26.00;64.50
21033;DHT22;10675;47.976;7.824;2023-07-31T14:23:23;25.80;64.50
21033;DHT22;10675;47.976;7.824;2023-07-31T14:25:48;25.60;65.20
21033;DHT22;10675;47.976;7.824;2023-07-31T14:28:14;25.50;65.50
21033;DHT22;10675;47.976;7.824;2023-07-31T14:30:39;25.30;65.50
21033;DHT22;10675;47.976;7.824;2023-07-31T14:33:05;25.40;65.10
21033;DHT22;10675;47.976;7.824;2023-07-31T14:35:31;25.40;65.40
21033;DHT22;10675;47.976;7.824;2023-07-31T14:37:56;25.40;64.30
21033;DHT22;10675;47.976;7.824;2023-07-31T14:40:22;25.50;65.80
21033;DHT22;10675;47.976;7.824;2023-07-31T14:42:47;25.30;64.00
21033;DHT22;10675;47.976;7.824;2023-07-31T14:45:13;25.40;64.40
21033;DHT22;10675;47.976;7.824;2023-07-31T14:47:38;25.40;65.30
21033;DHT22;10675;47.976;7.824;2023-07-31T14:50:04;25.40;65.50
21033;DHT22;10675;47.976;7.824;2023-07-31T14:52:30;25.30;66.30
21033;DHT22;10675;47.976;7.824;2023-07-31T14:54:56;25.40;66.00
21033;DHT22;10675;47.976;7.824;2023-07-31T14:57:21;25.50;66.60
21033;DHT22;10675;47.976;7.824;2023-07-31T14:59:47;25.50;66.70
21033;DHT22;10675;47.976;7.824;2023-07-31T15:02:12;25.60;65.30
21033;DHT22;10675;47.976;7.824;2023-07-31T15:04:38;25.50;65.90
21033;DHT22;10675;47.976;7.824;2023-07-31T15:07:04;25.40;64.60
21033;DHT22;10675;47.976;7.824;2023-07-31T15:09:30;25.40;65.30
21033;DHT22;10675;47.976;7.824;2023-07-31T15:11:56;25.50;66.00
21033;DHT22;10675;47.976;7.824;2023-07-31T15:14:23;25.60;64.90
21033;DHT22;10675;47.976;7.824;2023-07-31T15:16:49;25.60;64.60
21033;DHT22;10675;47.976;7.824;2023-07-31T15:19:15;25.40;64.70
21033;DHT22;10675;47.976;7.824;2023-07-31T15:21:40;25.40;65.50
21033;DHT22;10675;47.976;7.824;2023-07-31T15:24:06;25.30;65.50
21033;DHT22;10675;47.976;7.824;2023-07-31T15:26:32;25.30;64.50
21033;DHT22;10675;47.976;7.824;2023-07-31T15:29:05;25.20;64.10
21033;DHT22;10675;47.976;7.824;2023-07-31T15:31:40;25.10;64.60
21033;DHT22;10675;47.976;7.824;2023-07-31T15:34:06;24.90;64.60